sensor_id;sensor_type;location;lat;lon;timestamp;P1;durP1;ratioP1;P2;durP2;ratioP2
39612;SDS011;25303;48.896;13.342;2022-11-18T00:01:45;4.83;;;2.30;;
39612;SDS011;25303;48.896;13.342;2022-11-18T00:04:28;4.60;;;2.05;;
39612;SDS011;25303;48.896;13.342;2022-11-18T00:07:11;3.67;;;2.13;;
39612;SDS011;25303;48.896;13.342;2022-11-18T00:09:54;8.23;;;3.08;;
39612;SDS011;25303;48.896;13.342;2022-11-18T00:12:38;5.10;;;2.70;;
39612;SDS011;25303;48.896;13.342;2022-11-18T00:15:39;5.13;;;2.83;;
39612;SDS011;25303;48.896;13.342;2022-11-18T00:18:22;7.57;;;3.28;;
39612;SDS011;25303;48.896;13.342;2022-11-18T00:21:05;5.60;;;2.70;;
39612;SDS011;25303;48.896;13.342;2022-11-18T00:23:50;5.68;;;2.42;;
39612;SDS011;25303;48.896;13.342;2022-11-18T00:26:33;7.30;;;2.85;;
39612;SDS011;25303;48.896;13.342;2022-11-18T00:29:18;4.20;;;2.37;;
39612;SDS011;25303;48.896;13.342;2022-11-18T00:32:02;6.95;;;2.85;;
39612;SDS011;25303;48.896;13.342;2022-11-18T00:37:29;10.43;;;4.63;;
39612;SDS011;25303;48.896;13.342;2022-11-18T00:40:12;6.82;;;3.38;;
39612;SDS011;25303;48.896;13.342;2022-11-18T00:42:55;7.20;;;3.35;;
39612;SDS011;25303;48.896;13.342;2022-11-18T00:45:38;6.72;;;3.60;;
39612;SDS011;25303;48.896;13.342;2022-11-18T00:48:21;10.77;;;5.32;;
39612;SDS011;25303;48.896;13.342;2022-11-18T00:51:06;8.07;;;4.05;;
39612;SDS011;25303;48.896;13.342;2022-11-18T00:53:51;7.65;;;3.90;;
39612;SDS011;25303;48.896;13.342;2022-11-18T00:56:35;7.33;;;4.07;;
39612;SDS011;25303;48.896;13.342;2022-11-18T00:59:18;8.20;;;4.35;;
39612;SDS011;25303;48.896;13.342;2022-11-18T01:02:03;8.95;;;4.30;;
39612;SDS011;25303;48.896;13.342;2022-11-18T01:04:45;9.70;;;4.50;;
39612;SDS011;25303;48.896;13.342;2022-11-18T01:07:28;9.48;;;4.30;;
39612;SDS011;25303;48.896;13.342;2022-11-18T01:10:12;8.07;;;4.03;;
39612;SDS011;25303;48.896;13.342;2022-11-18T01:12:55;6.82;;;4.18;;
39612;SDS011;25303;48.896;13.342;2022-11-18T01:15:56;10.50;;;4.78;;
39612;SDS011;25303;48.896;13.342;2022-11-18T01:18:41;6.70;;;3.85;;
39612;SDS011;25303;48.896;13.342;2022-11-18T01:21:24;7.07;;;3.53;;
39612;SDS011;25303;48.896;13.342;2022-11-18T01:24:07;5.88;;;3.22;;
39612;SDS011;25303;48.896;13.342;2022-11-18T01:26:50;4.43;;;2.63;;
39612;SDS011;25303;48.896;13.342;2022-11-18T01:29:33;5.60;;;2.90;;
39612;SDS011;25303;48.896;13.342;2022-11-18T01:32:16;6.75;;;3.55;;
39612;SDS011;25303;48.896;13.342;2022-11-18T01:35:08;4.50;;;2.78;;
39612;SDS011;25303;48.896;13.342;2022-11-18T01:37:51;4.78;;;2.97;;
39612;SDS011;25303;48.896;13.342;2022-11-18T01:40:34;5.75;;;2.60;;
39612;SDS011;25303;48.896;13.342;2022-11-18T01:43:19;5.35;;;2.55;;
39612;SDS011;25303;48.896;13.342;2022-11-18T01:46:03;5.65;;;2.80;;
39612;SDS011;25303;48.896;13.342;2022-11-18T01:48:47;6.75;;;3.28;;
39612;SDS011;25303;48.896;13.342;2022-11-18T01:51:34;8.40;;;4.05;;
39612;SDS011;25303;48.896;13.342;2022-11-18T01:54:21;6.63;;;3.58;;
39612;SDS011;25303;48.896;13.342;2022-11-18T01:57:11;7.85;;;3.50;;
39612;SDS011;25303;48.896;13.342;2022-11-18T01:59:58;7.82;;;3.97;;
39612;SDS011;25303;48.896;13.342;2022-11-18T02:02:45;9.07;;;4.47;;
39612;SDS011;25303;48.896;13.342;2022-11-18T02:05:29;9.35;;;3.60;;
39612;SDS011;25303;48.896;13.342;2022-11-18T02:08:16;6.88;;;3.63;;
39612;SDS011;25303;48.896;13.342;2022-11-18T02:11:00;7.90;;;3.58;;
39612;SDS011;25303;48.896;13.342;2022-11-18T02:13:43;9.00;;;4.38;;
39612;SDS011;25303;48.896;13.342;2022-11-18T02:16:28;7.40;;;3.95;;
39612;SDS011;25303;48.896;13.342;2022-11-18T02:19:25;7.60;;;3.92;;
39612;SDS011;25303;48.896;13.342;2022-11-18T02:22:27;7.97;;;3.90;;
39612;SDS011;25303;48.896;13.342;2022-11-18T02:25:27;9.63;;;4.60;;
39612;SDS011;25303;48.896;13.342;2022-11-18T02:28:19;6.80;;;3.90;;
39612;SDS011;25303;48.896;13.342;2022-11-18T02:31:13;7.75;;;4.18;;
39612;SDS011;25303;48.896;13.342;2022-11-18T02:34:02;8.65;;;4.35;;
39612;SDS011;25303;48.896;13.342;2022-11-18T02:36:56;13.05;;;5.70;;
39612;SDS011;25303;48.896;13.342;2022-11-18T02:39:43;9.43;;;5.25;;
39612;SDS011;25303;48.896;13.342;2022-11-18T02:42:32;8.27;;;4.65;;
39612;SDS011;25303;48.896;13.342;2022-11-18T02:45:19;9.98;;;4.63;;
39612;SDS011;25303;48.896;13.342;2022-11-18T02:48:06;9.85;;;4.55;;
39612;SDS011;25303;48.896;13.342;2022-11-18T02:50:52;11.98;;;5.88;;
39612;SDS011;25303;48.896;13.342;2022-11-18T02:56:21;27.63;;;7.68;;
39612;SDS011;25303;48.896;13.342;2022-11-18T02:59:07;75.10;;;8.52;;
39612;SDS011;25303;48.896;13.342;2022-11-18T03:01:50;11.13;;;5.90;;
39612;SDS011;25303;48.896;13.342;2022-11-18T03:04:35;13.40;;;6.25;;
39612;SDS011;25303;48.896;13.342;2022-11-18T03:07:19;19.17;;;7.95;;
39612;SDS011;25303;48.896;13.342;2022-11-18T03:10:07;14.88;;;6.50;;
39612;SDS011;25303;48.896;13.342;2022-11-18T03:12:51;12.50;;;5.57;;
39612;SDS011;25303;48.896;13.342;2022-11-18T03:15:41;42.17;;;6.60;;
39612;SDS011;25303;48.896;13.342;2022-11-18T03:18:31;16.27;;;5.55;;
39612;SDS011;25303;48.896;13.342;2022-11-18T03:21:27;13.60;;;6.10;;
39612;SDS011;25303;48.896;13.342;2022-11-18T03:24:16;16.65;;;5.35;;
39612;SDS011;25303;48.896;13.342;2022-11-18T03:27:05;11.10;;;5.03;;
39612;SDS011;25303;48.896;13.342;2022-11-18T03:29:57;7.13;;;3.97;;
39612;SDS011;25303;48.896;13.342;2022-11-18T03:32:44;20.70;;;5.32;;
39612;SDS011;25303;48.896;13.342;2022-11-18T03:35:34;8.65;;;4.70;;
39612;SDS011;25303;48.896;13.342;2022-11-18T03:38:24;7.72;;;4.07;;
39612;SDS011;25303;48.896;13.342;2022-11-18T03:41:10;62.72;;;6.20;;
39612;SDS011;25303;48.896;13.342;2022-11-18T03:43:59;26.10;;;5.43;;
39612;SDS011;25303;48.896;13.342;2022-11-18T03:46:47;9.35;;;4.85;;
39612;SDS011;25303;48.896;13.342;2022-11-18T03:49:35;22.80;;;4.68;;
39612;SDS011;25303;48.896;13.342;2022-11-18T03:52:24;7.10;;;3.92;;
39612;SDS011;25303;48.896;13.342;2022-11-18T03:55:13;7.03;;;4.20;;
39612;SDS011;25303;48.896;13.342;2022-11-18T03:58:02;10.35;;;5.38;;
39612;SDS011;25303;48.896;13.342;2022-11-18T04:00:51;7.53;;;4.07;;
39612;SDS011;25303;48.896;13.342;2022-11-18T04:03:39;14.52;;;4.13;;
39612;SDS011;25303;48.896;13.342;2022-11-18T04:06:24;9.80;;;4.63;;
39612;SDS011;25303;48.896;13.342;2022-11-18T04:09:17;8.82;;;4.80;;
39612;SDS011;25303;48.896;13.342;2022-11-18T04:12:07;17.25;;;5.55;;
39612;SDS011;25303;48.896;13.342;2022-11-18T04:14:55;8.70;;;4.60;;
39612;SDS011;25303;48.896;13.342;2022-11-18T04:17:39;8.70;;;4.70;;
39612;SDS011;25303;48.896;13.342;2022-11-18T04:20:23;18.33;;;5.40;;
39612;SDS011;25303;48.896;13.342;2022-11-18T04:23:07;15.52;;;5.45;;
39612;SDS011;25303;48.896;13.342;2022-11-18T04:25:50;8.00;;;4.60;;
39612;SDS011;25303;48.896;13.342;2022-11-18T04:28:34;6.95;;;3.83;;
39612;SDS011;25303;48.896;13.342;2022-11-18T04:31:17;8.05;;;4.03;;
39612;SDS011;25303;48.896;13.342;2022-11-18T04:34:00;7.82;;;4.40;;
39612;SDS011;25303;48.896;13.342;2022-11-18T04:36:43;7.90;;;4.32;;
39612;SDS011;25303;48.896;13.342;2022-11-18T04:39:26;10.48;;;5.72;;
39612;SDS011;25303;48.896;13.342;2022-11-18T04:42:10;16.50;;;5.15;;
39612;SDS011;25303;48.896;13.342;2022-11-18T04:44:54;9.05;;;4.50;;
39612;SDS011;25303;48.896;13.342;2022-11-18T04:47:37;8.18;;;4.28;;
39612;SDS011;25303;48.896;13.342;2022-11-18T04:50:20;6.72;;;3.63;;
39612;SDS011;25303;48.896;13.342;2022-11-18T04:53:03;12.35;;;4.60;;
39612;SDS011;25303;48.896;13.342;2022-11-18T04:55:46;10.05;;;4.72;;
39612;SDS011;25303;48.896;13.342;2022-11-18T04:58:29;8.43;;;4.20;;
39612;SDS011;25303;48.896;13.342;2022-11-18T05:01:13;7.68;;;4.00;;
39612;SDS011;25303;48.896;13.342;2022-11-18T05:03:58;9.00;;;4.88;;
39612;SDS011;25303;48.896;13.342;2022-11-18T05:09:24;7.35;;;3.50;;
39612;SDS011;25303;48.896;13.342;2022-11-18T05:12:13;6.97;;;3.63;;
39612;SDS011;25303;48.896;13.342;2022-11-18T05:15:14;10.05;;;3.63;;
39612;SDS011;25303;48.896;13.342;2022-11-18T05:17:59;6.95;;;3.42;;
39612;SDS011;25303;48.896;13.342;2022-11-18T05:20:42;4.97;;;2.72;;
39612;SDS011;25303;48.896;13.342;2022-11-18T05:23:25;12.77;;;3.33;;
39612;SDS011;25303;48.896;13.342;2022-11-18T05:26:08;4.80;;;3.03;;
39612;SDS011;25303;48.896;13.342;2022-11-18T05:28:52;3.95;;;2.28;;
39612;SDS011;25303;48.896;13.342;2022-11-18T05:31:35;5.28;;;2.63;;
39612;SDS011;25303;48.896;13.342;2022-11-18T05:34:20;5.07;;;2.67;;
39612;SDS011;25303;48.896;13.342;2022-11-18T05:37:03;3.97;;;2.17;;
39612;SDS011;25303;48.896;13.342;2022-11-18T05:39:46;4.07;;;2.33;;
39612;SDS011;25303;48.896;13.342;2022-11-18T05:42:29;4.90;;;2.45;;
39612;SDS011;25303;48.896;13.342;2022-11-18T05:45:29;5.13;;;3.08;;
39612;SDS011;25303;48.896;13.342;2022-11-18T05:48:12;4.75;;;3.05;;
39612;SDS011;25303;48.896;13.342;2022-11-18T05:50:57;5.00;;;3.03;;
39612;SDS011;25303;48.896;13.342;2022-11-18T05:53:40;5.20;;;2.78;;
39612;SDS011;25303;48.896;13.342;2022-11-18T05:56:24;7.75;;;3.35;;
39612;SDS011;25303;48.896;13.342;2022-11-18T05:59:09;6.07;;;3.45;;
39612;SDS011;25303;48.896;13.342;2022-11-18T06:01:54;5.90;;;3.35;;
39612;SDS011;25303;48.896;13.342;2022-11-18T06:04:42;5.90;;;2.97;;
39612;SDS011;25303;48.896;13.342;2022-11-18T06:07:30;8.10;;;3.20;;
39612;SDS011;25303;48.896;13.342;2022-11-18T06:10:18;4.03;;;2.45;;
39612;SDS011;25303;48.896;13.342;2022-11-18T06:13:05;4.70;;;2.47;;
39612;SDS011;25303;48.896;13.342;2022-11-18T06:15:50;5.38;;;2.78;;
39612;SDS011;25303;48.896;13.342;2022-11-18T06:18:34;22.20;;;3.83;;
39612;SDS011;25303;48.896;13.342;2022-11-18T06:21:19;73.35;;;4.57;;
39612;SDS011;25303;48.896;13.342;2022-11-18T06:24:04;54.38;;;3.60;;
39612;SDS011;25303;48.896;13.342;2022-11-18T06:26:50;23.17;;;3.20;;
39612;SDS011;25303;48.896;13.342;2022-11-18T06:29:33;84.38;;;3.85;;
39612;SDS011;25303;48.896;13.342;2022-11-18T06:32:17;71.50;;;3.45;;
39612;SDS011;25303;48.896;13.342;2022-11-18T06:35:00;4.18;;;3.10;;
39612;SDS011;25303;48.896;13.342;2022-11-18T06:37:43;10.40;;;3.10;;
39612;SDS011;25303;48.896;13.342;2022-11-18T06:40:28;39.88;;;3.53;;
39612;SDS011;25303;48.896;13.342;2022-11-18T06:43:15;45.63;;;4.05;;
39612;SDS011;25303;48.896;13.342;2022-11-18T06:46:15;5.53;;;2.80;;
39612;SDS011;25303;48.896;13.342;2022-11-18T06:49:17;4.13;;;2.70;;
39612;SDS011;25303;48.896;13.342;2022-11-18T06:52:00;4.30;;;2.40;;
39612;SDS011;25303;48.896;13.342;2022-11-18T06:54:43;5.68;;;2.85;;
39612;SDS011;25303;48.896;13.342;2022-11-18T06:57:28;53.60;;;3.83;;
39612;SDS011;25303;48.896;13.342;2022-11-18T07:00:12;9.82;;;2.90;;
39612;SDS011;25303;48.896;13.342;2022-11-18T07:02:56;68.22;;;4.20;;
39612;SDS011;25303;48.896;13.342;2022-11-18T07:05:39;10.35;;;3.20;;
39612;SDS011;25303;48.896;13.342;2022-11-18T07:08:22;9.07;;;3.00;;
39612;SDS011;25303;48.896;13.342;2022-11-18T07:11:06;5.38;;;2.65;;
39612;SDS011;25303;48.896;13.342;2022-11-18T07:13:53;18.52;;;3.47;;
39612;SDS011;25303;48.896;13.342;2022-11-18T07:16:36;23.42;;;4.20;;
39612;SDS011;25303;48.896;13.342;2022-11-18T07:19:19;9.32;;;3.55;;
39612;SDS011;25303;48.896;13.342;2022-11-18T07:22:02;7.10;;;3.30;;
39612;SDS011;25303;48.896;13.342;2022-11-18T07:24:45;4.38;;;2.88;;
39612;SDS011;25303;48.896;13.342;2022-11-18T07:27:28;12.32;;;2.78;;
39612;SDS011;25303;48.896;13.342;2022-11-18T07:30:13;8.45;;;2.45;;
39612;SDS011;25303;48.896;13.342;2022-11-18T07:32:56;14.43;;;2.40;;
39612;SDS011;25303;48.896;13.342;2022-11-18T07:35:39;4.63;;;2.22;;
39612;SDS011;25303;48.896;13.342;2022-11-18T07:38:22;4.07;;;2.10;;
39612;SDS011;25303;48.896;13.342;2022-11-18T07:41:05;3.42;;;2.00;;
39612;SDS011;25303;48.896;13.342;2022-11-18T07:43:50;8.30;;;2.03;;
39612;SDS011;25303;48.896;13.342;2022-11-18T07:46:43;56.67;;;3.58;;
39612;SDS011;25303;48.896;13.342;2022-11-18T07:49:26;29.98;;;3.33;;
39612;SDS011;25303;48.896;13.342;2022-11-18T07:52:09;9.27;;;3.08;;
39612;SDS011;25303;48.896;13.342;2022-11-18T07:54:52;20.77;;;2.55;;
39612;SDS011;25303;48.896;13.342;2022-11-18T07:57:35;9.13;;;2.05;;
39612;SDS011;25303;48.896;13.342;2022-11-18T08:00:18;4.50;;;2.20;;
39612;SDS011;25303;48.896;13.342;2022-11-18T08:03:03;2.80;;;1.77;;
39612;SDS011;25303;48.896;13.342;2022-11-18T08:05:46;13.80;;;2.10;;
39612;SDS011;25303;48.896;13.342;2022-11-18T08:08:30;1.98;;;1.20;;
39612;SDS011;25303;48.896;13.342;2022-11-18T08:11:13;3.20;;;1.50;;
39612;SDS011;25303;48.896;13.342;2022-11-18T08:14:03;30.40;;;2.53;;
39612;SDS011;25303;48.896;13.342;2022-11-18T08:16:46;2.08;;;1.40;;
39612;SDS011;25303;48.896;13.342;2022-11-18T08:19:30;2.75;;;1.60;;
39612;SDS011;25303;48.896;13.342;2022-11-18T08:22:15;4.85;;;2.20;;
39612;SDS011;25303;48.896;13.342;2022-11-18T08:25:30;4.22;;;2.08;;
39612;SDS011;25303;48.896;13.342;2022-11-18T08:28:13;92.85;;;3.78;;
39612;SDS011;25303;48.896;13.342;2022-11-18T08:30:57;2.30;;;1.42;;
39612;SDS011;25303;48.896;13.342;2022-11-18T08:33:40;27.17;;;5.97;;
39612;SDS011;25303;48.896;13.342;2022-11-18T08:36:27;6.50;;;2.65;;
39612;SDS011;25303;48.896;13.342;2022-11-18T08:39:12;2.97;;;1.83;;
39612;SDS011;25303;48.896;13.342;2022-11-18T08:41:56;8.63;;;1.77;;
39612;SDS011;25303;48.896;13.342;2022-11-18T08:47:23;2.42;;;1.30;;
39612;SDS011;25303;48.896;13.342;2022-11-18T08:50:07;2.00;;;1.30;;
39612;SDS011;25303;48.896;13.342;2022-11-18T08:52:52;2.08;;;1.40;;
39612;SDS011;25303;48.896;13.342;2022-11-18T08:55:35;2.25;;;1.60;;
39612;SDS011;25303;48.896;13.342;2022-11-18T08:58:18;2.10;;;1.42;;
39612;SDS011;25303;48.896;13.342;2022-11-18T09:01:03;2.50;;;1.70;;
39612;SDS011;25303;48.896;13.342;2022-11-18T09:03:47;2.28;;;1.40;;
39612;SDS011;25303;48.896;13.342;2022-11-18T09:06:30;2.35;;;1.40;;
39612;SDS011;25303;48.896;13.342;2022-11-18T09:09:16;2.30;;;1.60;;
39612;SDS011;25303;48.896;13.342;2022-11-18T09:12:00;3.50;;;2.15;;
39612;SDS011;25303;48.896;13.342;2022-11-18T09:14:43;3.85;;;2.10;;
39612;SDS011;25303;48.896;13.342;2022-11-18T09:17:47;2.15;;;1.60;;
39612;SDS011;25303;48.896;13.342;2022-11-18T09:20:30;2.10;;;1.50;;
39612;SDS011;25303;48.896;13.342;2022-11-18T09:23:13;2.08;;;1.48;;
39612;SDS011;25303;48.896;13.342;2022-11-18T09:25:58;2.15;;;1.20;;
39612;SDS011;25303;48.896;13.342;2022-11-18T09:28:41;1.52;;;1.23;;
39612;SDS011;25303;48.896;13.342;2022-11-18T09:31:25;1.60;;;1.20;;
39612;SDS011;25303;48.896;13.342;2022-11-18T09:34:10;1.90;;;1.30;;
39612;SDS011;25303;48.896;13.342;2022-11-18T09:36:53;3.30;;;1.80;;
39612;SDS011;25303;48.896;13.342;2022-11-18T09:39:37;2.30;;;1.50;;
39612;SDS011;25303;48.896;13.342;2022-11-18T09:42:26;1.67;;;1.13;;
39612;SDS011;25303;48.896;13.342;2022-11-18T09:45:23;1.75;;;1.00;;
39612;SDS011;25303;48.896;13.342;2022-11-18T09:48:11;1.67;;;1.08;;
39612;SDS011;25303;48.896;13.342;2022-11-18T09:50:58;1.95;;;1.48;;
39612;SDS011;25303;48.896;13.342;2022-11-18T09:53:42;1.75;;;1.48;;
39612;SDS011;25303;48.896;13.342;2022-11-18T09:56:26;1.48;;;1.20;;
39612;SDS011;25303;48.896;13.342;2022-11-18T09:59:11;2.00;;;1.50;;
39612;SDS011;25303;48.896;13.342;2022-11-18T10:01:58;1.77;;;1.30;;
39612;SDS011;25303;48.896;13.342;2022-11-18T10:04:53;1.42;;;1.00;;
39612;SDS011;25303;48.896;13.342;2022-11-18T10:07:39;2.17;;;1.13;;
39612;SDS011;25303;48.896;13.342;2022-11-18T10:10:29;1.08;;;0.65;;
39612;SDS011;25303;48.896;13.342;2022-11-18T10:13:22;1.02;;;0.70;;
39612;SDS011;25303;48.896;13.342;2022-11-18T10:16:18;0.93;;;0.60;;
39612;SDS011;25303;48.896;13.342;2022-11-18T10:19:10;4.30;;;1.88;;
39612;SDS011;25303;48.896;13.342;2022-11-18T10:22:05;1.20;;;0.88;;
39612;SDS011;25303;48.896;13.342;2022-11-18T10:25:06;2.65;;;1.60;;
39612;SDS011;25303;48.896;13.342;2022-11-18T10:27:54;1.30;;;1.00;;
39612;SDS011;25303;48.896;13.342;2022-11-18T10:30:37;2.97;;;1.20;;
39612;SDS011;25303;48.896;13.342;2022-11-18T10:33:26;1.50;;;0.80;;
39612;SDS011;25303;48.896;13.342;2022-11-18T10:36:13;1.35;;;0.80;;
39612;SDS011;25303;48.896;13.342;2022-11-18T10:39:10;1.08;;;0.73;;
39612;SDS011;25303;48.896;13.342;2022-11-18T10:41:56;1.20;;;0.80;;
39612;SDS011;25303;48.896;13.342;2022-11-18T10:44:43;1.05;;;0.80;;
39612;SDS011;25303;48.896;13.342;2022-11-18T10:47:27;2.75;;;0.90;;
39612;SDS011;25303;48.896;13.342;2022-11-18T10:50:26;0.60;;;0.50;;
39612;SDS011;25303;48.896;13.342;2022-11-18T10:53:28;0.57;;;0.40;;
39612;SDS011;25303;48.896;13.342;2022-11-18T10:56:13;0.57;;;0.30;;
39612;SDS011;25303;48.896;13.342;2022-11-18T10:58:57;0.47;;;0.40;;
39612;SDS011;25303;48.896;13.342;2022-11-18T11:01:41;0.85;;;0.40;;
39612;SDS011;25303;48.896;13.342;2022-11-18T11:04:31;0.30;;;0.30;;
39612;SDS011;25303;48.896;13.342;2022-11-18T11:07:26;0.70;;;0.40;;
39612;SDS011;25303;48.896;13.342;2022-11-18T11:10:26;0.55;;;0.40;;
39612;SDS011;25303;48.896;13.342;2022-11-18T11:13:11;1.05;;;0.35;;
39612;SDS011;25303;48.896;13.342;2022-11-18T11:15:59;0.40;;;0.30;;
39612;SDS011;25303;48.896;13.342;2022-11-18T11:18:47;0.35;;;0.30;;
39612;SDS011;25303;48.896;13.342;2022-11-18T11:21:41;0.38;;;0.30;;
39612;SDS011;25303;48.896;13.342;2022-11-18T11:24:26;0.90;;;0.60;;
39612;SDS011;25303;48.896;13.342;2022-11-18T11:27:18;0.70;;;0.32;;
39612;SDS011;25303;48.896;13.342;2022-11-18T11:31:20;1.40;;;0.40;;
39612;SDS011;25303;48.896;13.342;2022-11-18T11:34:15;0.85;;;0.60;;
39612;SDS011;25303;48.896;13.342;2022-11-18T11:37:08;0.90;;;0.47;;
39612;SDS011;25303;48.896;13.342;2022-11-18T11:40:06;0.57;;;0.50;;
39612;SDS011;25303;48.896;13.342;2022-11-18T11:43:06;0.63;;;0.50;;
39612;SDS011;25303;48.896;13.342;2022-11-18T11:46:10;0.60;;;0.40;;
39612;SDS011;25303;48.896;13.342;2022-11-18T11:49:12;1.00;;;0.68;;
39612;SDS011;25303;48.896;13.342;2022-11-18T11:52:07;0.60;;;0.40;;
39612;SDS011;25303;48.896;13.342;2022-11-18T11:55:00;0.50;;;0.40;;
39612;SDS011;25303;48.896;13.342;2022-11-18T11:58:03;0.90;;;0.40;;
39612;SDS011;25303;48.896;13.342;2022-11-18T12:01:16;0.60;;;0.55;;
39612;SDS011;25303;48.896;13.342;2022-11-18T12:04:10;0.60;;;0.40;;
39612;SDS011;25303;48.896;13.342;2022-11-18T12:07:07;0.70;;;0.45;;
39612;SDS011;25303;48.896;13.342;2022-11-18T12:13:13;0.32;;;0.32;;
39612;SDS011;25303;48.896;13.342;2022-11-18T12:16:09;1.20;;;0.40;;
39612;SDS011;25303;48.896;13.342;2022-11-18T12:19:06;0.40;;;0.38;;
39612;SDS011;25303;48.896;13.342;2022-11-18T12:21:53;0.57;;;0.50;;
39612;SDS011;25303;48.896;13.342;2022-11-18T12:24:38;0.38;;;0.38;;
39612;SDS011;25303;48.896;13.342;2022-11-18T12:30:40;0.60;;;0.40;;
39612;SDS011;25303;48.896;13.342;2022-11-18T12:33:23;0.60;;;0.40;;
39612;SDS011;25303;48.896;13.342;2022-11-18T12:36:06;0.75;;;0.40;;
39612;SDS011;25303;48.896;13.342;2022-11-18T12:38:49;0.57;;;0.40;;
39612;SDS011;25303;48.896;13.342;2022-11-18T12:45:36;0.55;;;0.38;;
39612;SDS011;25303;48.896;13.342;2022-11-18T12:48:31;0.30;;;0.20;;
39612;SDS011;25303;48.896;13.342;2022-11-18T12:54:26;0.40;;;0.30;;
39612;SDS011;25303;48.896;13.342;2022-11-18T12:57:12;1.67;;;0.38;;
39612;SDS011;25303;48.896;13.342;2022-11-18T13:00:14;0.22;;;0.22;;
39612;SDS011;25303;48.896;13.342;2022-11-18T13:02:59;0.68;;;0.45;;
39612;SDS011;25303;48.896;13.342;2022-11-18T13:05:44;0.75;;;0.40;;
39612;SDS011;25303;48.896;13.342;2022-11-18T13:11:13;0.55;;;0.40;;
39612;SDS011;25303;48.896;13.342;2022-11-18T13:14:16;0.40;;;0.30;;
39612;SDS011;25303;48.896;13.342;2022-11-18T13:17:23;0.85;;;0.60;;
39612;SDS011;25303;48.896;13.342;2022-11-18T13:20:25;0.85;;;0.50;;
39612;SDS011;25303;48.896;13.342;2022-11-18T13:26:40;9.18;;;2.25;;
39612;SDS011;25303;48.896;13.342;2022-11-18T13:29:29;25.55;;;5.35;;
39612;SDS011;25303;48.896;13.342;2022-11-18T13:32:19;5.20;;;1.85;;
39612;SDS011;25303;48.896;13.342;2022-11-18T13:35:08;2.67;;;0.80;;
39612;SDS011;25303;48.896;13.342;2022-11-18T13:37:55;3.83;;;1.48;;
39612;SDS011;25303;48.896;13.342;2022-11-18T13:40:44;1.00;;;0.60;;
39612;SDS011;25303;48.896;13.342;2022-11-18T13:43:44;14.30;;;4.78;;
39612;SDS011;25303;48.896;13.342;2022-11-18T13:46:34;7.38;;;2.30;;
39612;SDS011;25303;48.896;13.342;2022-11-18T13:49:18;4.75;;;1.63;;
39612;SDS011;25303;48.896;13.342;2022-11-18T13:52:06;9.38;;;2.70;;
39612;SDS011;25303;48.896;13.342;2022-11-18T13:54:51;6.90;;;2.10;;
39612;SDS011;25303;48.896;13.342;2022-11-18T13:57:38;6.35;;;2.35;;
39612;SDS011;25303;48.896;13.342;2022-11-18T14:00:23;34.13;;;10.40;;
39612;SDS011;25303;48.896;13.342;2022-11-18T14:03:13;12.77;;;4.10;;
39612;SDS011;25303;48.896;13.342;2022-11-18T14:06:05;6.75;;;2.10;;
39612;SDS011;25303;48.896;13.342;2022-11-18T14:08:48;2.58;;;1.05;;
39612;SDS011;25303;48.896;13.342;2022-11-18T14:11:33;2.38;;;0.90;;
39612;SDS011;25303;48.896;13.342;2022-11-18T14:14:27;2.35;;;1.10;;
39612;SDS011;25303;48.896;13.342;2022-11-18T14:17:16;2.53;;;1.08;;
39612;SDS011;25303;48.896;13.342;2022-11-18T14:20:00;1.67;;;0.82;;
39612;SDS011;25303;48.896;13.342;2022-11-18T14:22:51;1.40;;;0.70;;
39612;SDS011;25303;48.896;13.342;2022-11-18T14:25:36;0.88;;;0.40;;
39612;SDS011;25303;48.896;13.342;2022-11-18T14:28:19;2.25;;;0.70;;
39612;SDS011;25303;48.896;13.342;2022-11-18T14:31:20;1.50;;;0.80;;
39612;SDS011;25303;48.896;13.342;2022-11-18T14:34:16;0.65;;;0.40;;
39612;SDS011;25303;48.896;13.342;2022-11-18T14:37:01;0.40;;;0.20;;
39612;SDS011;25303;48.896;13.342;2022-11-18T14:39:53;2.10;;;1.10;;
39612;SDS011;25303;48.896;13.342;2022-11-18T14:42:37;4.63;;;2.45;;
39612;SDS011;25303;48.896;13.342;2022-11-18T14:45:20;6.13;;;2.50;;
39612;SDS011;25303;48.896;13.342;2022-11-18T14:48:05;5.82;;;1.75;;
39612;SDS011;25303;48.896;13.342;2022-11-18T14:50:53;12.43;;;3.42;;
39612;SDS011;25303;48.896;13.342;2022-11-18T14:53:36;12.85;;;3.70;;
39612;SDS011;25303;48.896;13.342;2022-11-18T14:56:21;12.02;;;3.08;;
39612;SDS011;25303;48.896;13.342;2022-11-18T14:59:06;13.68;;;4.05;;
39612;SDS011;25303;48.896;13.342;2022-11-18T15:01:51;11.65;;;4.18;;
39612;SDS011;25303;48.896;13.342;2022-11-18T15:04:36;7.80;;;3.20;;
39612;SDS011;25303;48.896;13.342;2022-11-18T15:07:19;4.15;;;1.60;;
39612;SDS011;25303;48.896;13.342;2022-11-18T15:10:04;4.78;;;1.67;;
39612;SDS011;25303;48.896;13.342;2022-11-18T15:12:47;6.22;;;2.58;;
39612;SDS011;25303;48.896;13.342;2022-11-18T15:15:30;5.88;;;2.47;;
39612;SDS011;25303;48.896;13.342;2022-11-18T15:18:13;2.90;;;1.60;;
39612;SDS011;25303;48.896;13.342;2022-11-18T15:20:58;2.85;;;1.30;;
39612;SDS011;25303;48.896;13.342;2022-11-18T15:23:41;2.53;;;1.20;;
39612;SDS011;25303;48.896;13.342;2022-11-18T15:26:25;2.90;;;1.40;;
39612;SDS011;25303;48.896;13.342;2022-11-18T15:29:12;3.08;;;1.40;;
39612;SDS011;25303;48.896;13.342;2022-11-18T15:31:58;2.78;;;1.30;;
39612;SDS011;25303;48.896;13.342;2022-11-18T15:34:41;3.25;;;1.50;;
39612;SDS011;25303;48.896;13.342;2022-11-18T15:37:25;3.05;;;0.90;;
39612;SDS011;25303;48.896;13.342;2022-11-18T15:40:08;1.23;;;0.52;;
39612;SDS011;25303;48.896;13.342;2022-11-18T15:42:51;1.10;;;0.60;;
39612;SDS011;25303;48.896;13.342;2022-11-18T15:45:34;1.00;;;0.52;;
39612;SDS011;25303;48.896;13.342;2022-11-18T15:48:17;0.80;;;0.40;;
39612;SDS011;25303;48.896;13.342;2022-11-18T15:51:00;0.98;;;0.50;;
39612;SDS011;25303;48.896;13.342;2022-11-18T15:53:52;0.60;;;0.28;;
39612;SDS011;25303;48.896;13.342;2022-11-18T15:59:18;3.65;;;1.40;;
39612;SDS011;25303;48.896;13.342;2022-11-18T16:02:01;4.30;;;1.33;;
39612;SDS011;25303;48.896;13.342;2022-11-18T16:04:44;1.67;;;0.90;;
39612;SDS011;25303;48.896;13.342;2022-11-18T16:07:27;1.80;;;0.80;;
39612;SDS011;25303;48.896;13.342;2022-11-18T16:10:12;2.13;;;0.90;;
39612;SDS011;25303;48.896;13.342;2022-11-18T16:13:12;3.15;;;1.40;;
39612;SDS011;25303;48.896;13.342;2022-11-18T16:15:55;3.00;;;0.60;;
39612;SDS011;25303;48.896;13.342;2022-11-18T16:18:38;0.30;;;0.30;;
39612;SDS011;25303;48.896;13.342;2022-11-18T16:21:21;0.10;;;0.10;;
39612;SDS011;25303;48.896;13.342;2022-11-18T16:24:06;0.82;;;0.40;;
39612;SDS011;25303;48.896;13.342;2022-11-18T16:26:53;0.30;;;0.28;;
39612;SDS011;25303;48.896;13.342;2022-11-18T16:32:19;1.10;;;0.40;;
39612;SDS011;25303;48.896;13.342;2022-11-18T16:35:02;0.45;;;0.20;;
39612;SDS011;25303;48.896;13.342;2022-11-18T16:37:45;0.57;;;0.30;;
39612;SDS011;25303;48.896;13.342;2022-11-18T16:40:28;1.02;;;0.40;;
39612;SDS011;25303;48.896;13.342;2022-11-18T16:43:13;0.60;;;0.30;;
39612;SDS011;25303;48.896;13.342;2022-11-18T16:45:55;1.60;;;0.55;;
39612;SDS011;25303;48.896;13.342;2022-11-18T16:48:38;1.60;;;0.60;;
39612;SDS011;25303;48.896;13.342;2022-11-18T16:51:22;1.10;;;0.50;;
39612;SDS011;25303;48.896;13.342;2022-11-18T16:54:08;0.57;;;0.30;;
39612;SDS011;25303;48.896;13.342;2022-11-18T16:56:57;1.13;;;0.40;;
39612;SDS011;25303;48.896;13.342;2022-11-18T16:59:42;0.85;;;0.30;;
39612;SDS011;25303;48.896;13.342;2022-11-18T17:02:25;1.50;;;0.63;;
39612;SDS011;25303;48.896;13.342;2022-11-18T17:05:08;0.82;;;0.40;;
39612;SDS011;25303;48.896;13.342;2022-11-18T17:07:53;0.40;;;0.20;;